createdAt,value
2018-09-18T00:00:30.588Z,15.65
2018-09-18T00:01:30.681Z,15.65
2018-09-18T00:02:30.763Z,15.67
2018-09-18T00:03:30.739Z,15.65
2018-09-18T00:04:30.709Z,15.62
2018-09-18T00:05:30.924Z,15.64
2018-09-18T00:06:30.998Z,15.65
2018-09-18T00:07:30.954Z,15.65
2018-09-18T00:08:30.955Z,15.64
2018-09-18T00:09:31.297Z,15.64
2018-09-18T00:10:51.039Z,15.65
2018-09-18T00:12:12.074Z,15.64
2018-09-18T00:13:12.094Z,15.65
2018-09-18T00:14:12.225Z,15.64
2018-09-18T00:15:12.186Z,15.62
2018-09-18T00:16:12.450Z,15.61
2018-09-18T00:17:12.564Z,15.61
2018-09-18T00:18:12.667Z,15.61
2018-09-18T00:19:12.564Z,15.61
2018-09-18T00:20:12.622Z,15.64
2018-09-18T00:21:12.745Z,15.64
2018-09-18T00:22:12.748Z,15.67
2018-09-18T00:23:13.037Z,15.68
2018-09-18T00:24:12.010Z,15.72
2018-09-18T00:25:13.201Z,15.72
2018-09-18T00:26:12.130Z,15.73
2018-09-18T00:27:12.203Z,15.77
2018-09-18T00:28:12.239Z,15.76
2018-09-18T00:29:12.439Z,15.75
2018-09-18T00:30:33.961Z,15.73
2018-09-18T00:31:34.344Z,15.75
2018-09-18T00:32:34.170Z,15.73
2018-09-18T00:33:34.628Z,15.75
2018-09-18T00:34:56.910Z,15.72
2018-09-18T00:35:56.052Z,15.72
2018-09-18T00:36:55.341Z,15.70
2018-09-18T00:37:55.712Z,15.72
2018-09-18T00:38:55.989Z,15.77
2018-09-18T00:39:56.246Z,15.77
2018-09-18T00:40:56.209Z,15.76
2018-09-18T00:42:00.082Z,15.77
2018-09-18T00:42:56.727Z,15.79
2018-09-18T00:43:57.276Z,15.79
2018-09-18T00:44:56.229Z,15.80
2018-09-18T00:45:55.968Z,15.80
2018-09-18T00:46:56.750Z,15.79
2018-09-18T00:47:56.017Z,15.77
2018-09-18T00:48:56.359Z,15.77
2018-09-18T00:49:56.091Z,15.76
2018-09-18T00:50:56.506Z,15.76
2018-09-18T00:51:56.353Z,15.75
2018-09-18T00:52:56.043Z,15.75
2018-09-18T00:53:55.410Z,15.72
2018-09-18T00:54:55.971Z,15.72
2018-09-18T00:55:56.483Z,15.72
2018-09-18T00:56:56.132Z,15.72
2018-09-18T00:57:56.330Z,15.72
2018-09-18T00:58:56.080Z,15.68
2018-09-18T00:59:55.922Z,15.65
2018-09-18T01:00:56.041Z,15.62
2018-09-18T01:01:56.276Z,15.59
2018-09-18T01:02:55.953Z,15.57
2018-09-18T01:03:56.544Z,15.54
2018-09-18T01:04:56.483Z,15.54
2018-09-18T01:05:57.490Z,15.52
2018-09-18T01:06:56.004Z,15.51
2018-09-18T01:07:56.658Z,15.52
2018-09-18T01:08:58.008Z,15.54
2018-09-18T01:10:17.821Z,15.55
2018-09-18T01:11:18.090Z,15.54
2018-09-18T01:12:18.675Z,15.51
2018-09-18T01:13:18.987Z,15.49
2018-09-18T01:14:18.972Z,15.47
2018-09-18T01:15:18.447Z,15.44
2018-09-18T01:16:17.670Z,15.43
2018-09-18T01:17:17.591Z,15.43
2018-09-18T01:18:17.679Z,15.43
2018-09-18T01:19:17.560Z,15.43
2018-09-18T01:20:17.739Z,15.44
2018-09-18T01:21:17.772Z,15.44
2018-09-18T01:22:18.348Z,15.46
2018-09-18T01:23:18.213Z,15.46
2018-09-18T01:24:18.230Z,15.49
2018-09-18T01:25:18.299Z,15.49
2018-09-18T01:26:18.257Z,15.47
2018-09-18T01:27:18.170Z,15.51
2018-09-18T01:28:18.419Z,15.49
2018-09-18T01:29:17.596Z,15.52
2018-09-18T01:30:18.158Z,15.54
2018-09-18T01:31:18.246Z,15.55
2018-09-18T01:32:17.482Z,15.58
2018-09-18T01:33:59.266Z,15.58
2018-09-18T01:35:00.321Z,15.57
2018-09-18T01:36:00.245Z,15.61
2018-09-18T01:37:00.232Z,15.62
2018-09-18T01:38:00.339Z,15.62
2018-09-18T01:39:00.438Z,15.61
2018-09-18T01:39:59.451Z,15.59
2018-09-18T01:40:59.556Z,15.61
2018-09-18T01:41:59.817Z,15.67
2018-09-18T01:42:59.856Z,15.68
2018-09-18T01:43:59.788Z,15.72
2018-09-18T01:44:59.835Z,15.70
2018-09-18T01:46:20.864Z,15.70
2018-09-18T01:47:20.969Z,15.72
2018-09-18T01:48:20.974Z,15.72
2018-09-18T01:49:21.019Z,15.68
2018-09-18T01:50:21.918Z,15.72
2018-09-18T01:51:21.057Z,15.70
2018-09-18T01:52:21.018Z,15.72
2018-09-18T01:53:21.346Z,15.72
2018-09-18T01:54:21.664Z,15.72
2018-09-18T01:55:41.989Z,15.75
2018-09-18T01:56:42.255Z,15.76
2018-09-18T01:57:43.064Z,15.79
2018-09-18T01:58:42.037Z,15.77
2018-09-18T01:59:42.098Z,15.79
2018-09-18T02:00:42.238Z,15.80
2018-09-18T02:01:42.497Z,15.82
2018-09-18T02:02:42.659Z,15.82
2018-09-18T02:03:41.602Z,15.82
2018-09-18T02:04:42.586Z,15.82
2018-09-18T02:05:41.880Z,15.84
2018-09-18T02:06:41.918Z,15.86
2018-09-18T02:07:42.038Z,15.90
2018-09-18T02:08:42.328Z,15.91
2018-09-18T02:09:42.260Z,15.91
2018-09-18T02:10:42.311Z,15.94
2018-09-18T02:11:42.582Z,15.94
2018-09-18T02:13:03.494Z,15.94
2018-09-18T02:14:03.599Z,15.92
2018-09-18T02:15:03.880Z,15.92
2018-09-18T02:16:03.972Z,15.88
2018-09-18T02:17:04.336Z,15.88
2018-09-18T02:18:04.485Z,15.90
2018-09-18T02:19:03.779Z,15.88
2018-09-18T02:20:03.856Z,15.84
2018-09-18T02:21:03.787Z,15.86
2018-09-18T02:22:04.066Z,15.88
2018-09-18T02:23:04.108Z,15.88
2018-09-18T02:24:04.219Z,15.84
2018-09-18T02:25:04.335Z,15.84
2018-09-18T02:26:04.398Z,15.84
2018-09-18T02:27:24.767Z,15.83
2018-09-18T02:28:24.907Z,15.83
2018-09-18T02:29:25.139Z,15.77
2018-09-18T02:30:25.268Z,15.77
2018-09-18T02:31:25.553Z,15.77
2018-09-18T02:32:25.542Z,15.76
2018-09-18T02:33:25.636Z,15.77
2018-09-18T02:34:24.945Z,15.75
2018-09-18T02:35:25.221Z,15.75
2018-09-18T02:36:25.299Z,15.75
2018-09-18T02:37:25.620Z,15.73
2018-09-18T02:38:24.675Z,15.75
2018-09-18T02:39:24.926Z,15.75
2018-09-18T02:40:25.346Z,15.75
2018-09-18T02:41:25.507Z,15.75
2018-09-18T02:42:24.806Z,15.75
2018-09-18T02:43:25.006Z,15.73
2018-09-18T02:44:24.881Z,15.73
2018-09-18T02:45:24.900Z,15.70
2018-09-18T02:46:25.200Z,15.68
2018-09-18T02:47:48.588Z,15.64
2018-09-18T02:48:48.728Z,15.64
2018-09-18T02:50:30.745Z,15.64
2018-09-18T02:51:31.771Z,15.62
2018-09-18T02:52:31.074Z,15.61
2018-09-18T02:53:31.283Z,15.62
2018-09-18T02:54:31.634Z,15.62
2018-09-18T02:55:31.805Z,15.62
2018-09-18T02:56:31.048Z,15.64
2018-09-18T02:57:31.037Z,15.64
2018-09-18T02:58:31.120Z,15.62
2018-09-18T02:59:31.391Z,15.59
2018-09-18T03:00:52.377Z,15.57
2018-09-18T03:01:52.565Z,15.58
2018-09-18T03:02:52.713Z,15.57
2018-09-18T03:03:52.741Z,15.55
2018-09-18T03:04:53.072Z,15.52
2018-09-18T03:05:53.385Z,15.54
2018-09-18T03:06:52.376Z,15.54
2018-09-18T03:07:52.695Z,15.54
2018-09-18T03:08:52.964Z,15.55
2018-09-18T03:09:53.237Z,15.49
2018-09-18T03:10:52.381Z,15.47
2018-09-18T03:11:52.480Z,15.47
2018-09-18T03:12:52.587Z,15.49
2018-09-18T03:13:52.905Z,15.49
2018-09-18T03:14:52.802Z,15.47
2018-09-18T03:16:14.032Z,15.47
2018-09-18T03:17:13.891Z,15.46
2018-09-18T03:18:13.903Z,15.46
2018-09-18T03:19:35.027Z,15.46
2018-09-18T03:20:56.068Z,15.44
2018-09-18T03:21:56.386Z,15.40
2018-09-18T03:23:19.393Z,15.39
2018-09-18T03:24:19.495Z,15.40
2018-09-18T03:25:19.881Z,15.44
2018-09-18T03:26:41.015Z,15.44
2018-09-18T03:27:41.284Z,15.42
2018-09-18T03:29:02.577Z,15.43
2018-09-18T03:30:02.717Z,15.43
2018-09-18T03:31:02.883Z,15.43
2018-09-18T03:32:03.019Z,15.44
2018-09-18T03:33:03.301Z,15.43
2018-09-18T03:34:03.444Z,15.43
2018-09-18T03:35:02.713Z,15.44
2018-09-18T03:36:02.965Z,15.47
2018-09-18T03:37:03.315Z,15.49
2018-09-18T03:38:02.545Z,15.51
2018-09-18T03:39:02.500Z,15.46
2018-09-18T03:40:13.306Z,15.46
2018-09-18T03:41:02.487Z,15.46
2018-09-18T03:42:23.604Z,15.47
2018-09-18T03:43:23.776Z,15.49
2018-09-18T03:44:23.797Z,15.47
2018-09-18T03:45:23.830Z,15.47
2018-09-18T03:46:23.976Z,15.47
2018-09-18T03:47:24.268Z,15.49
2018-09-18T03:48:24.353Z,15.49
2018-09-18T03:49:23.405Z,15.44
2018-09-18T03:50:23.774Z,15.46
2018-09-18T03:51:23.939Z,15.44
2018-09-18T03:52:24.313Z,15.46
2018-09-18T03:53:24.365Z,15.47
2018-09-18T03:54:23.649Z,15.46
2018-09-18T03:55:23.817Z,15.47
2018-09-18T03:56:23.988Z,15.61
2018-09-18T03:57:24.162Z,15.62
2018-09-18T03:58:45.031Z,15.64
2018-09-18T03:59:45.233Z,15.62
2018-09-18T04:00:45.501Z,15.61
2018-09-18T04:01:45.754Z,15.59
2018-09-18T04:02:46.024Z,15.58
2018-09-18T04:03:45.828Z,15.61
2018-09-18T04:04:45.769Z,15.61
2018-09-18T04:05:45.846Z,15.62
2018-09-18T04:06:45.905Z,15.64
2018-09-18T04:07:45.929Z,15.62
2018-09-18T04:08:46.031Z,15.61
2018-09-18T04:09:45.172Z,15.61
2018-09-18T04:10:45.179Z,15.64
2018-09-18T04:11:45.327Z,15.65
2018-09-18T04:12:45.433Z,15.67
2018-09-18T04:13:45.552Z,15.68
2018-09-18T04:14:45.471Z,15.70
2018-09-18T04:15:45.403Z,15.72
2018-09-18T04:16:45.619Z,15.73
2018-09-18T04:17:45.930Z,15.75
2018-09-18T04:18:45.977Z,15.77
2018-09-18T04:19:45.880Z,15.79
2018-09-18T04:20:45.044Z,15.83
2018-09-18T04:21:45.157Z,15.88
2018-09-18T04:22:45.390Z,15.91
2018-09-18T04:23:45.817Z,15.92
2018-09-18T04:24:46.038Z,15.91
2018-09-18T04:25:45.439Z,15.91
2018-09-18T04:26:45.852Z,15.91
2018-09-18T04:27:45.101Z,15.91
2018-09-18T04:28:45.283Z,15.94
2018-09-18T04:29:45.650Z,15.94
2018-09-18T04:30:46.024Z,15.98
2018-09-18T04:32:06.028Z,16.05
2018-09-18T04:33:07.200Z,16.05
2018-09-18T04:34:06.464Z,16.08
2018-09-18T04:35:06.726Z,16.10
2018-09-18T04:36:06.857Z,16.12
2018-09-18T04:37:06.232Z,16.13
2018-09-18T04:38:06.546Z,16.16
2018-09-18T04:39:06.635Z,16.16
2018-09-18T04:40:07.488Z,16.16
2018-09-18T04:41:06.387Z,16.16
2018-09-18T04:42:06.581Z,16.21
2018-09-18T04:43:06.675Z,16.31
2018-09-18T04:44:07.174Z,16.43
2018-09-18T04:45:06.242Z,16.47
2018-09-18T04:46:06.696Z,16.47
2018-09-18T04:47:07.402Z,16.46
2018-09-18T04:48:07.016Z,16.47
2018-09-18T04:49:06.003Z,16.47
2018-09-18T04:50:06.554Z,16.47
2018-09-18T04:51:06.712Z,16.47
2018-09-18T04:52:07.146Z,16.42
2018-09-18T04:53:06.391Z,16.41
2018-09-18T04:54:06.594Z,16.47
2018-09-18T04:55:06.701Z,16.47
2018-09-18T04:56:07.009Z,16.46
2018-09-18T04:57:06.252Z,16.49
2018-09-18T04:58:06.399Z,16.54
2018-09-18T04:59:06.528Z,16.56
2018-09-18T05:00:07.091Z,16.57
2018-09-18T05:01:06.593Z,16.56
2018-09-18T05:02:06.574Z,16.56
2018-09-18T05:03:27.855Z,16.56
2018-09-18T05:04:49.644Z,16.64
2018-09-18T05:05:49.919Z,16.66
2018-09-18T05:07:31.125Z,16.65
2018-09-18T05:08:31.539Z,16.65
2018-09-18T05:09:32.137Z,16.69
2018-09-18T05:10:32.409Z,16.66
2018-09-18T05:11:31.607Z,16.65
2018-09-18T05:12:31.747Z,16.61
2018-09-18T05:13:32.039Z,16.60
2018-09-18T05:14:32.189Z,16.60
2018-09-18T05:15:31.201Z,16.58
2018-09-18T05:16:31.359Z,16.56
2018-09-18T05:17:31.358Z,16.54
2018-09-18T05:19:13.257Z,16.64
2018-09-18T05:20:13.543Z,16.64
2018-09-18T05:21:13.849Z,16.58
2018-09-18T05:22:14.186Z,16.54
2018-09-18T05:23:13.620Z,16.58
2018-09-18T05:24:13.912Z,16.60
2018-09-18T05:25:13.943Z,16.56
2018-09-18T05:26:14.327Z,16.56
2018-09-18T05:27:14.676Z,16.54
2018-09-18T05:28:14.059Z,16.54
2018-09-18T05:29:14.221Z,16.53
2018-09-18T05:30:14.608Z,16.51
2018-09-18T05:31:13.975Z,16.51
2018-09-18T05:32:14.683Z,16.51
2018-09-18T05:33:14.004Z,16.50
2018-09-18T05:34:14.024Z,16.47
2018-09-18T05:35:14.855Z,16.50
2018-09-18T05:36:14.072Z,16.49
2018-09-18T05:37:14.360Z,16.49
2018-09-18T05:38:13.743Z,16.50
2018-09-18T05:39:14.919Z,16.49
2018-09-18T05:40:35.037Z,16.50
2018-09-18T05:41:56.531Z,16.51
2018-09-18T05:42:56.567Z,16.54
2018-09-18T05:43:56.657Z,16.54
2018-09-18T05:44:57.011Z,16.54
2018-09-18T05:45:57.041Z,16.54
2018-09-18T05:46:56.324Z,16.53
2018-09-18T05:47:56.722Z,16.54
2018-09-18T05:48:57.051Z,16.58
2018-09-18T05:50:17.732Z,16.58
2018-09-18T05:51:17.943Z,16.57
2018-09-18T05:52:18.244Z,16.57
2018-09-18T05:53:17.599Z,16.56
2018-09-18T05:54:17.688Z,16.54
2018-09-18T05:55:17.864Z,16.54
2018-09-18T05:56:38.967Z,16.53
2018-09-18T05:57:39.288Z,16.53
2018-09-18T05:58:39.551Z,16.53
2018-09-18T05:59:40.212Z,16.56
2018-09-18T06:00:39.496Z,16.57
2018-09-18T06:01:39.727Z,16.56
2018-09-18T06:02:39.939Z,16.58
2018-09-18T06:03:39.457Z,16.61
2018-09-18T06:04:39.996Z,16.64
2018-09-18T06:06:21.289Z,16.65
2018-09-18T06:07:21.645Z,16.69
2018-09-18T06:08:21.969Z,16.71
2018-09-18T06:09:21.125Z,16.76
2018-09-18T06:10:22.274Z,16.84
2018-09-18T06:11:21.681Z,16.89
2018-09-18T06:12:21.994Z,16.93
2018-09-18T06:13:21.266Z,17.01
2018-09-18T06:14:21.502Z,17.08
2018-09-18T06:15:21.650Z,17.16
2018-09-18T06:16:22.092Z,17.31
2018-09-18T06:17:21.314Z,17.46
2018-09-18T06:18:21.725Z,17.64
2018-09-18T06:19:22.231Z,17.80
2018-09-18T06:20:21.245Z,18.01
2018-09-18T06:21:21.386Z,18.23
2018-09-18T06:22:21.526Z,18.52
2018-09-18T06:23:21.538Z,18.77
2018-09-18T06:24:21.894Z,19.02
2018-09-18T06:25:21.272Z,19.29
2018-09-18T06:26:21.515Z,19.58
2018-09-18T06:27:22.849Z,19.85
2018-09-18T06:28:21.457Z,20.09
2018-09-18T06:29:21.765Z,20.32
2018-09-18T06:30:22.106Z,20.56
2018-09-18T06:31:21.303Z,20.69
2018-09-18T06:32:42.524Z,20.85
2018-09-18T06:33:42.993Z,20.96
2018-09-18T06:34:43.431Z,21.14
2018-09-18T06:35:42.963Z,21.32
2018-09-18T06:36:43.065Z,21.45
2018-09-18T06:37:43.521Z,21.69
2018-09-18T06:38:42.971Z,21.89
2018-09-18T06:39:43.523Z,22.07
2018-09-18T06:40:42.978Z,22.28
2018-09-18T06:41:43.448Z,22.50
2018-09-18T06:43:04.046Z,22.76
2018-09-18T06:44:05.518Z,22.93
2018-09-18T06:45:05.211Z,23.12
2018-09-18T06:47:08.061Z,23.62
2018-09-18T06:48:08.269Z,23.80
2018-09-18T06:49:08.852Z,23.96
2018-09-18T06:50:08.170Z,24.11
2018-09-18T06:51:09.242Z,24.26
2018-09-18T06:52:08.596Z,24.51
2018-09-18T06:53:09.476Z,24.70
2018-09-18T06:54:08.622Z,24.89
2018-09-18T06:55:08.813Z,25.06
2018-09-18T06:56:08.237Z,25.18
2018-09-18T06:57:08.822Z,25.29
2018-09-18T06:58:08.354Z,25.53
2018-09-18T06:59:08.407Z,25.70
2018-09-18T07:00:08.623Z,25.93
2018-09-18T07:01:08.996Z,26.13
2018-09-18T07:02:08.233Z,26.31
2018-09-18T07:03:08.891Z,26.58
2018-09-18T07:04:08.186Z,26.66
2018-09-18T07:05:08.566Z,26.85
2018-09-18T07:06:08.619Z,27.05
2018-09-18T07:07:09.064Z,27.22
2018-09-18T07:08:08.577Z,27.40
2018-09-18T07:09:08.649Z,27.59
2018-09-18T07:10:08.112Z,27.71
2018-09-18T07:11:08.353Z,27.80
2018-09-18T07:12:08.580Z,27.93
2018-09-18T07:13:08.813Z,27.98
2018-09-18T07:14:08.262Z,27.82
2018-09-18T07:15:08.788Z,27.73
2018-09-18T07:16:08.753Z,27.67
2018-09-18T07:17:08.028Z,27.82
2018-09-18T07:18:08.550Z,27.92
2018-09-18T07:19:08.889Z,27.98
2018-09-18T07:20:08.094Z,28.26
2018-09-18T07:21:08.476Z,28.30
2018-09-18T07:22:08.813Z,28.26
2018-09-18T07:23:07.795Z,28.44
2018-09-18T07:24:07.964Z,28.35
2018-09-18T07:25:30.538Z,28.52
2018-09-18T07:26:30.777Z,28.64
2018-09-18T07:27:31.011Z,28.70
2018-09-18T07:28:31.334Z,28.79
2018-09-18T07:29:30.821Z,28.89
2018-09-18T07:30:31.160Z,28.96
2018-09-18T07:31:31.519Z,28.94
2018-09-18T07:32:30.938Z,29.01
2018-09-18T07:33:31.070Z,28.91
2018-09-18T07:34:31.441Z,28.94
2018-09-18T07:35:30.738Z,28.96
2018-09-18T07:36:30.904Z,29.29
2018-09-18T07:37:31.328Z,29.26
2018-09-18T07:38:31.517Z,29.20
2018-09-18T07:39:30.543Z,29.32
2018-09-18T07:40:30.775Z,29.59
2018-09-18T07:41:31.075Z,29.81
2018-09-18T07:42:31.224Z,29.61
2018-09-18T07:43:51.666Z,29.42
2018-09-18T07:44:52.116Z,29.60
2018-09-18T07:45:52.411Z,29.86
2018-09-18T07:46:51.807Z,30.09
2018-09-18T07:47:52.424Z,30.13
2018-09-18T07:48:51.670Z,29.97
2018-09-18T07:50:13.053Z,30.05
2018-09-18T07:51:13.301Z,30.12
2018-09-18T07:52:13.717Z,30.43
2018-09-18T07:53:13.958Z,30.65
2018-09-18T07:54:13.194Z,30.77
2018-09-18T07:55:13.603Z,30.88
2018-09-18T07:56:14.024Z,31.02
2018-09-18T07:57:34.369Z,30.96
2018-09-18T07:58:34.812Z,30.88
2018-09-18T07:59:35.257Z,30.78
2018-09-18T08:00:34.607Z,30.72
2018-09-18T08:01:35.092Z,30.81
2018-09-18T08:02:35.519Z,30.90
2018-09-18T08:03:34.956Z,30.99
2018-09-18T08:04:35.277Z,31.29
2018-09-18T08:05:34.819Z,31.66
2018-09-18T08:06:35.131Z,31.92
2018-09-18T08:07:34.687Z,31.97
2018-09-18T08:08:35.474Z,31.97
2018-09-18T08:09:34.872Z,32.07
2018-09-18T08:10:35.193Z,31.84
2018-09-18T08:11:35.519Z,31.66
2018-09-18T08:12:56.346Z,31.92
2018-09-18T08:13:57.580Z,32.03
2018-09-18T08:14:56.809Z,31.73
2018-09-18T08:15:56.950Z,31.81
2018-09-18T08:17:18.731Z,32.03
2018-09-18T08:18:19.666Z,32.21
2018-09-18T08:19:18.855Z,32.23
2018-09-18T08:20:40.574Z,32.40
2018-09-18T08:21:41.908Z,32.48
2018-09-18T08:22:41.438Z,32.67
2018-09-18T08:24:02.043Z,32.67
2018-09-18T08:25:02.428Z,32.85
2018-09-18T08:26:02.875Z,32.71
2018-09-18T08:27:02.246Z,32.85
2018-09-18T08:28:02.758Z,33.00
2018-09-18T08:29:02.288Z,32.58
2018-09-18T08:30:02.525Z,32.75
2018-09-18T08:31:03.083Z,32.64
2018-09-18T08:32:02.536Z,32.68
2018-09-18T08:33:03.119Z,32.85
2018-09-18T08:34:02.690Z,33.00
2018-09-18T08:35:02.231Z,33.08
2018-09-18T08:36:23.938Z,33.28
2018-09-18T08:37:24.275Z,33.52
2018-09-18T08:38:24.874Z,33.49
2018-09-18T08:39:24.473Z,33.57
2018-09-18T08:40:24.827Z,33.34
2018-09-18T08:41:24.345Z,33.49
2018-09-18T08:42:24.609Z,33.87
2018-09-18T08:43:24.085Z,33.87
2018-09-18T08:44:24.614Z,33.86
2018-09-18T08:45:24.992Z,33.79
2018-09-18T08:46:24.534Z,33.59
2018-09-18T08:47:24.135Z,33.68
2018-09-18T08:48:45.655Z,33.89
2018-09-18T08:49:46.268Z,34.08
2018-09-18T08:50:45.593Z,34.13
2018-09-18T08:51:46.128Z,33.80
2018-09-18T08:52:47.050Z,33.83
2018-09-18T08:53:46.366Z,34.14
2018-09-18T08:54:45.882Z,34.38
2018-09-18T08:55:46.171Z,34.62
2018-09-18T08:56:46.733Z,34.70
2018-09-18T08:57:47.438Z,34.60
2018-09-18T08:58:45.692Z,34.55
2018-09-18T09:00:08.285Z,34.70
2018-09-18T09:01:09.146Z,34.75
2018-09-18T09:02:09.070Z,34.50
2018-09-18T09:03:29.292Z,33.98
2018-09-18T09:04:30.894Z,33.86
2018-09-18T09:05:29.313Z,34.10
2018-09-18T09:06:31.253Z,33.83
2018-09-18T09:07:30.039Z,33.77
2018-09-18T09:08:29.427Z,33.86
2018-09-18T09:09:52.741Z,33.67
2018-09-18T09:10:53.697Z,33.81
2018-09-18T09:11:51.991Z,33.84
2018-09-18T09:12:52.713Z,33.73
2018-09-18T09:13:52.299Z,33.69
2018-09-18T09:14:52.778Z,33.94
2018-09-18T09:15:52.439Z,34.43
2018-09-18T09:16:53.797Z,34.92
2018-09-18T09:17:52.416Z,35.34
2018-09-18T09:18:52.797Z,35.66
2018-09-18T09:19:52.962Z,35.39
2018-09-18T09:20:52.778Z,35.53
2018-09-18T09:21:53.203Z,35.66
2018-09-18T09:22:52.530Z,35.68
2018-09-18T09:23:51.789Z,35.67
2018-09-18T09:24:52.986Z,36.02
2018-09-18T09:26:16.297Z,36.31
2018-09-18T09:27:16.352Z,36.57
2018-09-18T09:28:15.987Z,36.64
2018-09-18T09:29:15.501Z,36.35
2018-09-18T09:30:15.837Z,36.21
2018-09-18T09:31:15.702Z,36.20
2018-09-18T09:32:16.769Z,36.55
2018-09-18T09:33:16.901Z,36.95
2018-09-18T09:34:15.980Z,37.36
2018-09-18T09:35:15.218Z,37.39
2018-09-18T09:36:15.603Z,37.64
2018-09-18T09:37:15.798Z,37.23
2018-09-18T09:38:15.422Z,36.88
2018-09-18T09:39:15.759Z,36.67
2018-09-18T09:40:15.067Z,36.51
2018-09-18T09:41:15.477Z,36.37
2018-09-18T09:42:15.864Z,36.47
2018-09-18T09:43:15.213Z,36.62
2018-09-18T09:44:15.726Z,36.74
2018-09-18T09:45:57.163Z,37.07
2018-09-18T09:47:18.624Z,37.26
2018-09-18T09:48:18.850Z,37.51
2018-09-18T09:49:19.254Z,37.70
2018-09-18T09:50:19.624Z,37.72
2018-09-18T09:51:19.235Z,37.97
2018-09-18T09:52:18.854Z,37.78
2018-09-18T09:53:19.365Z,37.86
2018-09-18T09:54:18.964Z,38.06
2018-09-18T09:55:19.442Z,38.19
2018-09-18T09:56:18.747Z,38.38
2018-09-18T09:57:19.233Z,38.12
2018-09-18T09:58:19.690Z,37.93
2018-09-18T09:59:19.018Z,38.02
2018-09-18T10:00:41.157Z,37.92
2018-09-18T10:01:41.609Z,38.20
2018-09-18T10:02:41.355Z,38.30
2018-09-18T10:03:41.142Z,38.34
2018-09-18T10:04:40.436Z,38.12
2018-09-18T10:05:40.707Z,37.56
2018-09-18T10:06:41.443Z,37.86
2018-09-18T10:07:41.048Z,38.36
2018-09-18T10:08:40.627Z,38.74
2018-09-18T10:09:40.887Z,39.18
2018-09-18T10:10:42.524Z,39.51
2018-09-18T10:11:41.627Z,39.89
2018-09-18T10:12:41.063Z,40.04
2018-09-18T10:13:41.371Z,40.00
2018-09-18T10:14:41.406Z,39.96
2018-09-18T10:15:40.816Z,40.11
2018-09-18T10:16:41.302Z,40.40
2018-09-18T10:17:40.679Z,40.69
2018-09-18T10:18:41.264Z,40.73
2018-09-18T10:19:40.783Z,40.70
2018-09-18T10:20:41.331Z,40.81
2018-09-18T10:21:40.627Z,40.96
2018-09-18T10:22:41.177Z,40.63
2018-09-18T10:23:40.445Z,40.72
2018-09-18T10:24:40.744Z,40.33
2018-09-18T10:25:41.176Z,39.85
2018-09-18T10:26:40.501Z,39.51
2018-09-18T10:27:41.109Z,39.33
2018-09-18T10:28:40.390Z,39.38
2018-09-18T10:29:40.743Z,39.77
2018-09-18T10:30:41.248Z,39.74
2018-09-18T10:31:41.006Z,39.63
2018-09-18T10:32:40.817Z,39.60
2018-09-18T10:33:41.509Z,39.25
2018-09-18T10:34:40.992Z,39.65
2018-09-18T10:36:04.044Z,39.58
2018-09-18T10:37:01.408Z,39.29
2018-09-18T10:38:01.777Z,39.26
2018-09-18T10:39:02.252Z,39.33
2018-09-18T10:40:01.633Z,39.53
2018-09-18T10:41:23.507Z,39.25
2018-09-18T10:42:23.901Z,39.48
2018-09-18T10:43:23.341Z,39.93
2018-09-18T10:44:23.553Z,40.06
2018-09-18T10:45:24.019Z,40.00
2018-09-18T10:46:23.419Z,39.41
2018-09-18T10:47:23.954Z,39.04
2018-09-18T10:48:23.620Z,38.97
2018-09-18T10:49:23.879Z,38.99
2018-09-18T10:50:24.258Z,38.99
2018-09-18T10:51:23.696Z,39.03
2018-09-18T10:52:24.018Z,39.00
2018-09-18T10:53:23.281Z,38.43
2018-09-18T10:54:23.659Z,37.93
2018-09-18T10:55:24.237Z,37.90
2018-09-18T10:56:23.930Z,38.27
2018-09-18T10:57:44.409Z,38.91
2018-09-18T10:58:44.792Z,38.96
2018-09-18T10:59:45.847Z,38.54
2018-09-18T11:00:45.244Z,38.86
2018-09-18T11:01:44.835Z,38.76
2018-09-18T11:02:45.388Z,39.11
2018-09-18T11:03:44.863Z,38.83
2018-09-18T11:04:44.450Z,38.65
2018-09-18T11:05:44.860Z,38.33
2018-09-18T11:06:45.239Z,37.96
2018-09-18T11:07:46.377Z,38.21
2018-09-18T11:08:46.317Z,38.60
2018-09-18T11:09:44.806Z,38.82
2018-09-18T11:10:45.291Z,38.50
2018-09-18T11:11:44.680Z,38.68
2018-09-18T11:12:45.047Z,38.77
2018-09-18T11:13:44.238Z,38.96
2018-09-18T11:14:44.885Z,38.39
2018-09-18T11:16:06.513Z,37.99
2018-09-18T11:17:07.160Z,38.09
2018-09-18T11:18:06.980Z,38.55
2018-09-18T11:19:27.663Z,38.77
2018-09-18T11:20:27.942Z,39.03
2018-09-18T11:21:28.665Z,39.31
2018-09-18T11:22:28.163Z,39.21
2018-09-18T11:23:27.994Z,38.74
2018-09-18T11:24:28.645Z,38.60
2018-09-18T11:25:28.164Z,38.82
2018-09-18T11:26:28.614Z,39.03
2018-09-18T11:27:28.170Z,39.49
2018-09-18T11:28:27.815Z,39.85
2018-09-18T11:29:28.422Z,39.78
2018-09-18T11:30:27.898Z,39.83
2018-09-18T11:31:28.561Z,39.65
2018-09-18T11:32:28.106Z,39.34
2018-09-18T11:33:49.569Z,38.87
2018-09-18T11:35:32.532Z,38.99
2018-09-18T11:36:32.876Z,39.15
2018-09-18T11:37:33.519Z,39.00
2018-09-18T11:38:32.891Z,38.73
2018-09-18T11:39:33.396Z,38.46
2018-09-18T11:40:33.499Z,38.45
2018-09-18T11:41:32.896Z,38.40
2018-09-18T11:42:33.414Z,38.39
2018-09-18T11:43:32.997Z,38.50
2018-09-18T11:44:54.657Z,38.42
2018-09-18T11:45:56.401Z,38.57
2018-09-18T11:46:55.926Z,38.67
2018-09-18T11:47:55.614Z,38.80
2018-09-18T11:48:56.280Z,38.83
2018-09-18T11:49:55.013Z,38.83
2018-09-18T11:50:55.799Z,39.09
2018-09-18T11:52:37.323Z,39.24
2018-09-18T11:53:38.331Z,39.36
2018-09-18T11:54:37.702Z,39.26
2018-09-18T11:55:38.181Z,39.22
2018-09-18T11:56:38.152Z,39.06
2018-09-18T11:57:37.768Z,38.82
2018-09-18T11:58:38.424Z,38.48
2018-09-18T11:59:38.117Z,38.15
2018-09-18T12:00:40.516Z,38.50
2018-09-18T12:01:42.689Z,38.50
2018-09-18T12:02:38.045Z,38.27
2018-09-18T12:03:37.326Z,38.69
2018-09-18T12:04:38.015Z,38.91
2018-09-18T12:05:58.991Z,39.09
2018-09-18T12:06:59.238Z,39.15
2018-09-18T12:08:01.491Z,39.34
2018-09-18T12:08:59.903Z,39.46
2018-09-18T12:09:59.462Z,39.68
2018-09-18T12:11:00.374Z,39.90
2018-09-18T12:12:01.021Z,40.00
2018-09-18T12:12:59.650Z,39.52
2018-09-18T12:13:59.148Z,39.51
2018-09-18T12:15:22.761Z,39.53
2018-09-18T12:16:21.033Z,39.78
2018-09-18T12:17:42.760Z,39.07
2018-09-18T12:19:04.362Z,38.83
2018-09-18T12:20:05.054Z,38.84
2018-09-18T12:21:04.586Z,39.19
2018-09-18T12:22:04.977Z,39.38
2018-09-18T12:23:04.485Z,39.48
2018-09-18T12:24:05.088Z,39.55
2018-09-18T12:25:04.334Z,39.12
2018-09-18T12:26:04.938Z,39.07
2018-09-18T12:27:26.008Z,39.25
2018-09-18T12:28:26.587Z,39.51
2018-09-18T12:29:26.189Z,39.40
2018-09-18T12:30:27.043Z,39.53
2018-09-18T12:31:47.503Z,39.53
2018-09-18T12:32:47.838Z,39.41
2018-09-18T12:33:48.262Z,38.96
2018-09-18T12:34:47.944Z,38.69
2018-09-18T12:35:49.161Z,38.77
2018-09-18T12:36:47.797Z,39.02
2018-09-18T12:37:48.204Z,39.34
2018-09-18T12:38:47.935Z,39.59
2018-09-18T12:40:09.602Z,39.22
2018-09-18T12:41:31.472Z,39.12
2018-09-18T12:42:31.915Z,39.38
2018-09-18T12:44:14.524Z,39.75
2018-09-18T12:45:14.924Z,39.11
2018-09-18T12:46:14.635Z,38.97
2018-09-18T12:47:15.623Z,38.69
2018-09-18T12:48:15.804Z,38.57
2018-09-18T12:49:15.178Z,38.36
2018-09-18T12:50:15.124Z,37.96
2018-09-18T12:51:15.109Z,37.64
2018-09-18T12:52:14.513Z,37.77
2018-09-18T12:53:36.466Z,37.84
2018-09-18T12:54:36.756Z,37.83
2018-09-18T12:55:58.277Z,38.14
2018-09-18T12:56:59.079Z,38.40
2018-09-18T12:57:58.754Z,38.48
2018-09-18T12:59:25.679Z,38.48
2018-09-18T13:00:48.604Z,38.38
2018-09-18T13:01:50.864Z,38.43
2018-09-18T13:02:49.230Z,38.45
2018-09-18T13:03:49.532Z,38.58
2018-09-18T13:04:48.937Z,38.54
2018-09-18T13:05:49.207Z,38.26
2018-09-18T13:07:10.109Z,38.31
2018-09-18T13:08:54.842Z,38.14
2018-09-18T13:09:55.352Z,38.02
2018-09-18T13:10:54.958Z,37.78
2018-09-18T13:12:16.573Z,37.77
2018-09-18T13:13:16.677Z,38.05
2018-09-18T13:14:17.306Z,38.17
2018-09-18T13:15:17.203Z,38.28
2018-09-18T13:16:16.863Z,38.17
2018-09-18T13:17:17.384Z,38.21
2018-09-18T13:18:16.899Z,38.06
2018-09-18T13:19:17.441Z,37.92
2018-09-18T13:20:17.030Z,37.71
2018-09-18T13:21:16.588Z,37.65
2018-09-18T13:22:17.005Z,37.59
2018-09-18T13:23:17.689Z,37.47
2018-09-18T13:24:17.048Z,37.42